WetterOnline ( https://www.wetteronline.at )

Wetter aktuell Itzehoe

Aktuelles Wetter: Itzehoe (26m)

6-stündlich | Neueste Meldungen
Ortszeit Temperatur Wetter
Sa, 01.10. 8:00 10.1° C leichter Regen
Sa, 01.10. 2:00 11.2° C bedeckt
Fr, 30.09. 20:00 12.7° C wolkenlos
Fr, 30.09. 14:00 15.5° C bewölkt
Fr, 30.09. 8:00 10.0° C bedeckt
Fr, 30.09. 2:00 10.3° C bedeckt
Do, 29.09. 20:00 11.2° C Regen
Do, 29.09. 14:00 10.2° C leichter Regen
Ortszeit Temperatur Wetter
Sa, 01.10. 12:00 11.7° C bedeckt
Sa, 01.10. 11:50 11.7° C bedeckt
Sa, 01.10. 11:40 11.5° C bedeckt
Sa, 01.10. 11:30 11.1° C bedeckt
Sa, 01.10. 11:20 11.1° C Sprühregen
Sa, 01.10. 11:10 10.9° C Sprühregen
Sa, 01.10. 11:00 10.8° C Sprühregen
Sa, 01.10. 10:30 10.6° C bewölkt
Sa, 01.10. 10:00 10.5° C Regen
Sa, 01.10. 9:30 10.2° C leichter Regen
Sa, 01.10. 9:00 10.1° C leichter Regen
Ortszeit Relative Feuchte Sichtweite
Sa, 01.10. 8:00 92% 10 km
Sa, 01.10. 2:00 74% 50 km
Fr, 30.09. 20:00 75% 35 km
Fr, 30.09. 14:00 72% 55 km
Fr, 30.09. 8:00 97% 6 km
Fr, 30.09. 2:00 97% 9 km
Do, 29.09. 20:00 95% 6 km
Do, 29.09. 14:00 92% 14 km
Ortszeit Relative Feuchte Sichtweite
Sa, 01.10. 12:00 95% 29 km
Sa, 01.10. 11:50 95% -
Sa, 01.10. 11:40 95% -
Sa, 01.10. 11:30 95% 35 km
Sa, 01.10. 11:20 95% -
Sa, 01.10. 11:10 96% -
Sa, 01.10. 11:00 94% 9 km
Sa, 01.10. 10:30 94% 22 km
Sa, 01.10. 10:00 93% 45 km
Sa, 01.10. 9:30 94% 30 km
Sa, 01.10. 9:00 94% 13 km
Ortszeit Niederschlagsmenge Niederschlagsart
Sa, 01.10. 8:00 3 l/m2 in 12 Std. Regen
Sa, 01.10. 2:00 0.0 l/m2 in 6 Std. -
Fr, 30.09. 20:00 0.1 l/m2 in 12 Std. -
Fr, 30.09. 14:00 0.1 l/m2 in 6 Std. Regen
Fr, 30.09. 8:00 0.2 l/m2 in 12 Std. -
Fr, 30.09. 2:00 0.2 l/m2 in 6 Std. Regen
Do, 29.09. 20:00 11 l/m2 in 12 Std. Regen
Do, 29.09. 14:00 4 l/m2 in 6 Std. Regen
Ortszeit Niederschlagsmenge Niederschlagsart
Sa, 01.10. 12:00 0.4 l/m2 in 1 Std. Regen
Sa, 01.10. 11:50 keine Meldung -
Sa, 01.10. 11:40 keine Meldung -
Sa, 01.10. 11:30 0.4 l/m2 in 1 Std. Schneeregen
Sa, 01.10. 11:20 keine Meldung -
Sa, 01.10. 11:10 keine Meldung -
Sa, 01.10. 11:00 0.3 l/m2 in 1 Std. Regen
Sa, 01.10. 10:30 0.3 l/m2 in 1 Std. Schneeregen
Sa, 01.10. 10:00 1.0 l/m2 in 1 Std. Regen
Sa, 01.10. 9:30 1.0 l/m2 in 1 Std. -
Sa, 01.10. 9:00 2.7 l/m2 in 1 Std. Regen
Ortszeit Stärke Spitze Richtung
km/h Bft. km/h Grad Sektor
Sa, 01.10. 8:00 11 2 32 140° SO
Sa, 01.10. 2:00 6 1 17 140° SO
Fr, 30.09. 20:00 4 1 25 150° SO
Fr, 30.09. 14:00 7 2 25 220° SW
Fr, 30.09. 8:00 4 1 14 190° S
Fr, 30.09. 2:00 4 1 11 210° SW
Do, 29.09. 20:00 4 1 25 250° W
Do, 29.09. 14:00 7 2 18 220° SW
Ortszeit Stärke Spitze Richtung
km/h Bft. km/h Grad Sektor
Sa, 01.10. 12:00 9 2 20 220° SW
Sa, 01.10. 11:50 9 2 - 220° SW
Sa, 01.10. 11:40 9 2 - 200° S
Sa, 01.10. 11:30 9 2 20 190° S
Sa, 01.10. 11:20 9 2 - 190° S
Sa, 01.10. 11:10 9 2 - 190° S
Sa, 01.10. 11:00 9 2 24 170° S
Sa, 01.10. 10:30 9 2 24 170° S
Sa, 01.10. 10:00 11 2 31 170° S
Sa, 01.10. 9:30 11 2 29 150° SO
Sa, 01.10. 9:00 11 2 31 160° S
Ortszeit Untergrenze Bedeckung Gattung
total tief tief mittel hoch
Sa, 01.10. 8:00 450 m 7/8 7/8 - - -
Sa, 01.10. 2:00 6300 m 8/8 8/8 - - -
Fr, 30.09. 20:00 - 0/8 0/8 - - -
Fr, 30.09. 14:00 660 m 7/8 7/8 - - -
Fr, 30.09. 8:00 120 m 8/8 8/8 - - -
Fr, 30.09. 2:00 1500 m 8/8 8/8 - - -
Do, 29.09. 20:00 150 m 8/8 8/8 - - -
Do, 29.09. 14:00 <30 m 6/8 0/8 - - -
Ortszeit Bedeckungsgrad in Achtel und Wolkenuntergrenze
Sa, 01.10. 12:00 8(180m)
Sa, 01.10. 11:50 8(180m)
Sa, 01.10. 11:40 8
Sa, 01.10. 11:30 7(180m) 8(270m)
Sa, 01.10. 11:20 7(180m) 8(270m)
Sa, 01.10. 11:10 8
Sa, 01.10. 11:00 7(210m)
Sa, 01.10. 10:30 7(240m)
Sa, 01.10. 10:00 7(270m) 7(450m)
Sa, 01.10. 9:30 6(240m) 8(360m)
Sa, 01.10. 9:00 7(300m) 8(480m)
Ortszeit Luftdruck NN (hPa) Tendenz (hPa in 3 Std.)
Sa, 01.10. 8:00 1000 - 2,6
Sa, 01.10. 2:00 1005 - 1,9
Fr, 30.09. 20:00 1008 - 0,2
Fr, 30.09. 14:00 1009 + 0,3
Fr, 30.09. 8:00 1008 + 1,4
Fr, 30.09. 2:00 1006 + 0,8
Do, 29.09. 20:00 1004 + 1,5
Do, 29.09. 14:00 1002 + 0,8
Ortszeit Luftdruck NN (hPa) Tendenz (hPa in 3 Std.)
Sa, 01.10. 12:00 998 - 0,6
Sa, 01.10. 11:50 998 keine Meldung
Sa, 01.10. 11:40 998 keine Meldung
Sa, 01.10. 11:30 998 - 1,0
Sa, 01.10. 11:20 998 keine Meldung
Sa, 01.10. 11:10 998 keine Meldung
Sa, 01.10. 11:00 998 - 1,6
Sa, 01.10. 10:30 998 - 1,5
Sa, 01.10. 10:00 999 - 2,0
Sa, 01.10. 9:30 999 - 2,8
Sa, 01.10. 9:00 999 - 2,9
Ortszeit Schneehöhe (cm)
Sa, 01.10. 8:00 -
Sa, 01.10. 2:00 -
Fr, 30.09. 20:00 -
Fr, 30.09. 14:00 -
Fr, 30.09. 8:00 -
Fr, 30.09. 2:00 -
Do, 29.09. 20:00 -
Do, 29.09. 14:00 -
Ortszeit Schneehöhe (cm)
Sa, 01.10. 12:00 -
Sa, 01.10. 11:50 -
Sa, 01.10. 11:40 -
Sa, 01.10. 11:30 -
Sa, 01.10. 11:20 -
Sa, 01.10. 11:10 -
Sa, 01.10. 11:00 -
Sa, 01.10. 10:30 -
Sa, 01.10. 10:00 -
Sa, 01.10. 9:30 -
Sa, 01.10. 9:00 -
Link zu dieser Seite / Seite empfehlen

Das Wetter in ...